createdAt,value
2019-03-21T00:01:02.062Z,31.70
2019-03-21T00:03:37.175Z,31.50
2019-03-21T00:06:13.589Z,31.90
2019-03-21T00:08:48.504Z,32.40
2019-03-21T00:12:17.298Z,32.70
2019-03-21T00:15:17.109Z,32.50
2019-03-21T00:17:57.550Z,32.40
2019-03-21T00:20:32.556Z,32.10
2019-03-21T00:23:07.709Z,32.00
2019-03-21T00:25:41.710Z,32.10
2019-03-21T00:28:16.416Z,32.30
2019-03-21T00:30:51.422Z,32.50
2019-03-21T00:33:25.059Z,33.00
2019-03-21T00:35:59.950Z,33.70
2019-03-21T00:38:35.070Z,34.00
2019-03-21T00:41:10.824Z,33.80
2019-03-21T00:43:45.754Z,34.10
2019-03-21T00:46:21.454Z,35.00
2019-03-21T00:48:56.710Z,35.50
2019-03-21T00:51:31.631Z,36.10
2019-03-21T00:54:06.928Z,36.40
2019-03-21T00:56:41.838Z,36.40
2019-03-21T00:59:17.112Z,36.20
2019-03-21T01:01:51.472Z,36.00
2019-03-21T01:04:28.731Z,35.50
2019-03-21T01:07:04.945Z,35.30
2019-03-21T01:09:40.018Z,34.60
2019-03-21T01:12:15.787Z,34.10
2019-03-21T01:14:50.599Z,33.90
2019-03-21T01:17:25.354Z,33.40
2019-03-21T01:20:00.889Z,32.80
2019-03-21T01:22:35.566Z,33.00
2019-03-21T01:25:12.200Z,33.80
2019-03-21T01:27:46.843Z,33.90
2019-03-21T01:30:23.062Z,33.90
2019-03-21T01:32:57.145Z,33.80
2019-03-21T01:35:32.392Z,33.50
2019-03-21T01:38:08.058Z,33.20
2019-03-21T01:40:43.430Z,32.60
2019-03-21T01:43:18.020Z,32.60
2019-03-21T01:45:52.349Z,32.70
2019-03-21T01:48:27.496Z,33.50
2019-03-21T01:51:02.304Z,33.10
2019-03-21T01:53:37.483Z,33.90
2019-03-21T01:56:12.396Z,34.20
2019-03-21T01:58:47.040Z,33.80
2019-03-21T02:01:21.719Z,33.80
2019-03-21T02:03:57.081Z,34.30
2019-03-21T02:06:32.763Z,35.20
2019-03-21T02:09:10.316Z,35.50
2019-03-21T02:11:45.501Z,35.90
2019-03-21T02:14:21.330Z,36.20
2019-03-21T02:16:56.676Z,36.50
2019-03-21T02:19:32.220Z,37.20
2019-03-21T02:22:07.180Z,37.60
2019-03-21T02:24:41.650Z,38.40
2019-03-21T02:27:16.557Z,38.70
2019-03-21T02:29:52.028Z,38.60
2019-03-21T02:32:27.061Z,38.50
2019-03-21T02:35:01.946Z,38.40
2019-03-21T02:37:36.987Z,38.50
2019-03-21T02:40:14.855Z,38.90
2019-03-21T02:42:50.122Z,38.70
2019-03-21T02:45:25.769Z,38.20
2019-03-21T02:48:00.935Z,37.90
2019-03-21T02:50:36.327Z,37.80
2019-03-21T02:53:10.544Z,37.80
2019-03-21T02:55:45.280Z,37.80
2019-03-21T02:58:20.303Z,38.60
2019-03-21T03:00:55.353Z,39.00
2019-03-21T03:03:30.483Z,39.40
2019-03-21T03:06:05.114Z,39.60
2019-03-21T03:08:39.991Z,39.10
2019-03-21T03:11:13.850Z,38.30
2019-03-21T03:13:49.316Z,38.00
2019-03-21T03:16:23.900Z,38.00
2019-03-21T03:18:58.422Z,36.90
2019-03-21T03:21:33.473Z,37.60
2019-03-21T03:24:09.032Z,37.70
2019-03-21T03:26:43.603Z,37.30
2019-03-21T03:29:19.001Z,37.00
2019-03-21T03:31:54.263Z,36.60
2019-03-21T03:34:29.757Z,36.70
2019-03-21T03:37:04.836Z,37.00
2019-03-21T03:39:38.924Z,37.00
2019-03-21T03:42:13.088Z,37.30
2019-03-21T03:44:47.571Z,36.90
2019-03-21T03:47:23.282Z,37.00
2019-03-21T03:49:58.639Z,37.10
2019-03-21T03:52:33.777Z,36.90
2019-03-21T03:55:08.307Z,36.80
2019-03-21T03:57:43.263Z,36.80
2019-03-21T04:00:21.025Z,36.90
2019-03-21T04:02:56.291Z,37.10
2019-03-21T04:05:31.196Z,37.00
2019-03-21T04:08:06.127Z,36.60
2019-03-21T04:10:42.940Z,36.50
2019-03-21T04:13:17.009Z,36.70
2019-03-21T04:15:53.786Z,37.00
2019-03-21T04:18:28.029Z,37.20
2019-03-21T04:21:02.670Z,37.30
2019-03-21T04:23:37.898Z,37.10
2019-03-21T04:26:18.625Z,36.60
2019-03-21T04:28:52.872Z,36.00
2019-03-21T04:31:27.190Z,35.60
2019-03-21T04:34:03.782Z,35.60
2019-03-21T04:36:37.976Z,35.70
2019-03-21T04:39:13.357Z,36.00
2019-03-21T04:41:47.733Z,36.10
2019-03-21T04:44:22.345Z,36.50
2019-03-21T04:46:56.679Z,37.80
2019-03-21T04:49:31.720Z,37.50
2019-03-21T04:52:06.855Z,37.60
2019-03-21T04:54:39.891Z,37.80
2019-03-21T04:57:16.048Z,37.90
2019-03-21T04:59:51.574Z,38.40
2019-03-21T05:02:27.282Z,38.70
2019-03-21T05:05:01.924Z,38.30
2019-03-21T05:07:36.606Z,38.10
2019-03-21T05:10:12.436Z,38.10
2019-03-21T05:12:47.903Z,38.00
2019-03-21T05:15:25.673Z,37.50
2019-03-21T05:18:03.271Z,36.70
2019-03-21T05:20:38.309Z,36.70
2019-03-21T05:23:13.233Z,36.70
2019-03-21T05:25:48.553Z,36.60
2019-03-21T05:28:23.605Z,35.90
2019-03-21T05:31:01.705Z,35.10
2019-03-21T05:33:36.760Z,34.30
2019-03-21T05:36:11.413Z,34.00
2019-03-21T05:38:46.524Z,33.80
2019-03-21T05:41:21.146Z,33.80
2019-03-21T05:44:00.564Z,35.00
2019-03-21T05:46:34.782Z,36.40
2019-03-21T05:49:10.069Z,37.50
2019-03-21T05:51:44.670Z,37.40
2019-03-21T05:54:19.706Z,37.80
2019-03-21T05:56:54.043Z,37.60
2019-03-21T05:59:29.689Z,37.00
2019-03-21T06:02:03.922Z,36.80
2019-03-21T06:04:38.700Z,37.40
2019-03-21T06:07:46.199Z,37.70
2019-03-21T06:10:20.738Z,37.30
2019-03-21T06:12:55.291Z,37.00
2019-03-21T06:15:31.879Z,36.40
2019-03-21T06:19:07.494Z,35.90
2019-03-21T06:22:48.569Z,35.30
2019-03-21T06:26:07.646Z,35.30
2019-03-21T06:28:41.121Z,35.50
2019-03-21T06:31:16.258Z,35.80
2019-03-21T06:33:51.009Z,35.90
2019-03-21T06:36:24.998Z,36.40
2019-03-21T06:39:00.475Z,37.70
2019-03-21T06:41:35.119Z,38.00
2019-03-21T06:44:10.216Z,38.00
2019-03-21T06:46:49.664Z,37.60
2019-03-21T06:49:22.013Z,38.00
2019-03-21T06:51:57.336Z,38.10
2019-03-21T06:54:31.916Z,38.20
2019-03-21T06:57:06.219Z,38.10
2019-03-21T06:59:41.019Z,38.00
2019-03-21T07:02:15.575Z,38.30
2019-03-21T07:04:50.283Z,38.80
2019-03-21T07:07:25.337Z,38.70
2019-03-21T07:09:59.744Z,38.90
2019-03-21T07:12:34.332Z,39.20
2019-03-21T07:15:09.492Z,39.20
2019-03-21T07:17:43.618Z,39.30
2019-03-21T07:20:18.283Z,39.60
2019-03-21T07:22:52.050Z,39.50
2019-03-21T07:25:25.361Z,39.10
2019-03-21T07:27:58.782Z,40.10
2019-03-21T07:30:32.167Z,40.50
2019-03-21T07:33:09.249Z,39.10
2019-03-21T07:35:44.053Z,38.20
2019-03-21T07:38:18.880Z,38.00
2019-03-21T07:40:52.825Z,37.30
2019-03-21T07:43:27.109Z,36.60
2019-03-21T07:46:01.300Z,36.40
2019-03-21T07:48:35.872Z,36.60
2019-03-21T07:51:10.550Z,37.40
2019-03-21T07:53:44.329Z,38.30
2019-03-21T07:56:18.455Z,38.40
2019-03-21T07:58:53.522Z,38.70
2019-03-21T08:01:30.369Z,38.70
2019-03-21T08:04:04.537Z,38.30
2019-03-21T08:06:38.994Z,38.80
2019-03-21T08:09:13.211Z,39.40
2019-03-21T08:11:47.239Z,38.50
2019-03-21T08:14:20.553Z,37.60
2019-03-21T08:16:54.393Z,36.60
2019-03-21T08:19:27.979Z,36.90
2019-03-21T08:22:00.825Z,37.40
2019-03-21T08:24:34.066Z,38.60
2019-03-21T08:27:08.527Z,37.80
2019-03-21T08:29:42.097Z,38.10
2019-03-21T08:32:15.779Z,37.70
2019-03-21T08:34:49.891Z,37.90
2019-03-21T08:37:24.519Z,38.30
2019-03-21T08:39:59.346Z,38.00
2019-03-21T08:42:32.758Z,38.50
2019-03-21T08:45:07.102Z,38.00
2019-03-21T08:47:41.524Z,38.00
2019-03-21T08:50:15.447Z,38.20
2019-03-21T08:52:49.717Z,38.80
2019-03-21T08:55:23.055Z,38.60
2019-03-21T08:57:56.937Z,38.20
2019-03-21T09:00:34.490Z,37.80
2019-03-21T09:03:06.985Z,37.60
2019-03-21T09:05:40.775Z,38.40
2019-03-21T09:08:14.788Z,38.50
2019-03-21T09:10:48.832Z,38.40
2019-03-21T09:13:22.835Z,39.50
2019-03-21T09:15:57.475Z,40.10
2019-03-21T09:18:30.944Z,39.30
2019-03-21T09:21:03.686Z,38.90
2019-03-21T09:23:36.961Z,38.70
2019-03-21T09:26:10.762Z,38.50
2019-03-21T09:28:44.622Z,37.70
2019-03-21T09:31:17.509Z,37.10
2019-03-21T09:33:52.825Z,37.20
2019-03-21T09:36:27.866Z,37.20
2019-03-21T09:39:00.611Z,37.30
2019-03-21T09:41:34.266Z,37.20
2019-03-21T09:44:07.023Z,38.20
2019-03-21T09:46:50.451Z,39.30
2019-03-21T09:49:15.103Z,40.50
2019-03-21T09:51:49.156Z,41.40
2019-03-21T09:54:23.732Z,41.90
2019-03-21T09:56:57.968Z,41.30
2019-03-21T09:59:32.310Z,41.00
2019-03-21T10:02:07.203Z,40.50
2019-03-21T10:04:40.421Z,39.70
2019-03-21T10:07:14.467Z,39.10
2019-03-21T10:09:48.304Z,39.20
2019-03-21T10:12:23.632Z,40.10
2019-03-21T10:14:57.482Z,40.80
2019-03-21T10:17:30.775Z,40.30
2019-03-21T10:20:04.143Z,39.80
2019-03-21T10:22:38.169Z,39.70
2019-03-21T10:25:11.391Z,40.10
2019-03-21T10:27:46.447Z,39.80
2019-03-21T10:30:43.272Z,39.30
2019-03-21T10:33:18.771Z,39.80
2019-03-21T10:35:53.205Z,40.80
2019-03-21T10:38:28.714Z,40.70
2019-03-21T10:41:02.492Z,40.80
2019-03-21T10:43:36.895Z,39.80
2019-03-21T10:46:09.780Z,40.10
2019-03-21T10:48:43.609Z,40.10
2019-03-21T10:51:16.489Z,40.70
2019-03-21T10:53:49.916Z,41.60
2019-03-21T10:56:23.573Z,40.40
2019-03-21T10:58:57.433Z,39.50
2019-03-21T11:01:32.234Z,39.40
2019-03-21T11:04:05.535Z,40.00
2019-03-21T11:06:38.701Z,41.00
2019-03-21T11:09:14.189Z,41.20
2019-03-21T11:11:48.874Z,42.10
2019-03-21T11:14:22.105Z,42.10
2019-03-21T11:16:55.776Z,42.50
2019-03-21T11:19:29.456Z,44.10
2019-03-21T11:22:06.544Z,44.10
2019-03-21T11:24:40.871Z,43.80
2019-03-21T11:27:14.451Z,44.10
2019-03-21T11:29:47.279Z,43.70
2019-03-21T11:32:22.469Z,44.70
2019-03-21T11:34:56.442Z,45.30
2019-03-21T11:37:31.137Z,45.00
2019-03-21T11:40:05.958Z,43.50
2019-03-21T11:42:40.537Z,43.10
2019-03-21T11:45:15.514Z,44.60
2019-03-21T11:47:50.475Z,44.00
2019-03-21T11:50:25.692Z,44.00
2019-03-21T11:52:59.396Z,44.40
2019-03-21T11:55:33.325Z,44.30
2019-03-21T11:58:08.047Z,43.10
2019-03-21T12:00:44.999Z,42.40
2019-03-21T12:03:19.427Z,43.30
2019-03-21T12:05:54.003Z,43.30
2019-03-21T12:08:28.557Z,42.90
2019-03-21T12:11:04.139Z,43.40
2019-03-21T12:13:39.286Z,42.90
2019-03-21T12:16:13.892Z,41.30
2019-03-21T12:18:48.858Z,42.10
2019-03-21T12:21:23.767Z,41.30
2019-03-21T12:23:58.327Z,41.60
2019-03-21T12:26:33.399Z,41.50
2019-03-21T12:29:08.484Z,41.50
2019-03-21T12:31:43.070Z,40.80
2019-03-21T12:34:18.229Z,41.70
2019-03-21T12:36:52.543Z,41.50
2019-03-21T12:39:28.965Z,41.10
2019-03-21T12:42:03.504Z,40.60
2019-03-21T12:44:37.618Z,39.80
2019-03-21T12:47:13.505Z,39.80
2019-03-21T12:49:47.922Z,39.50
2019-03-21T12:52:22.577Z,38.20
2019-03-21T12:54:57.174Z,39.50
2019-03-21T12:57:32.103Z,40.80
2019-03-21T13:00:07.881Z,39.70
2019-03-21T13:02:43.274Z,39.30
2019-03-21T13:05:28.515Z,38.50
2019-03-21T13:08:02.517Z,38.60
2019-03-21T13:10:36.881Z,38.70
2019-03-21T13:13:10.648Z,38.20
2019-03-21T13:15:43.904Z,39.50
2019-03-21T13:18:17.078Z,40.30
2019-03-21T13:20:50.973Z,42.20
2019-03-21T13:23:25.475Z,43.20
2019-03-21T13:25:59.251Z,44.10
2019-03-21T13:28:32.855Z,43.90
2019-03-21T13:31:07.363Z,43.70
2019-03-21T13:33:40.691Z,43.10
2019-03-21T13:36:13.799Z,43.20
2019-03-21T13:38:48.099Z,43.40
2019-03-21T13:41:21.826Z,43.80
2019-03-21T13:43:55.986Z,42.80
2019-03-21T13:46:29.980Z,42.90
2019-03-21T13:49:03.117Z,42.80
2019-03-21T13:51:38.851Z,43.00
2019-03-21T13:54:12.719Z,41.90
2019-03-21T13:56:46.960Z,41.80
2019-03-21T13:59:21.062Z,42.10
2019-03-21T14:01:54.731Z,41.90
2019-03-21T14:04:29.159Z,42.20
2019-03-21T14:07:04.044Z,41.40
2019-03-21T14:09:38.490Z,40.00
2019-03-21T14:12:12.952Z,40.70
2019-03-21T14:14:46.273Z,40.10
2019-03-21T14:17:22.280Z,39.90
2019-03-21T14:19:55.717Z,39.70
2019-03-21T14:22:29.406Z,39.20
2019-03-21T14:25:03.908Z,38.60
2019-03-21T14:27:36.714Z,39.00
2019-03-21T14:30:10.536Z,39.00
2019-03-21T14:32:45.494Z,38.80
2019-03-21T14:35:20.544Z,38.30
2019-03-21T14:37:54.240Z,37.70
2019-03-21T14:40:27.511Z,37.70
2019-03-21T14:43:03.228Z,38.20
2019-03-21T14:45:36.845Z,38.10
2019-03-21T14:48:10.570Z,38.10
2019-03-21T14:50:43.830Z,38.30
2019-03-21T14:53:28.276Z,38.30
2019-03-21T14:55:54.973Z,38.30
2019-03-21T14:58:29.913Z,38.30
2019-03-21T15:01:04.715Z,38.50
2019-03-21T15:03:37.585Z,38.90
2019-03-21T15:06:13.525Z,38.80
2019-03-21T15:08:48.000Z,38.20
2019-03-21T15:11:22.687Z,38.70
2019-03-21T15:13:58.074Z,38.80
2019-03-21T15:16:32.861Z,38.80
2019-03-21T15:19:07.868Z,38.80
2019-03-21T15:21:41.602Z,39.10
2019-03-21T15:24:14.365Z,39.20
2019-03-21T15:26:47.136Z,39.30
2019-03-21T15:29:20.604Z,40.40
2019-03-21T15:31:55.469Z,39.80
2019-03-21T15:34:28.457Z,39.70
2019-03-21T15:37:02.103Z,39.30
2019-03-21T15:39:35.454Z,39.00
2019-03-21T15:42:08.695Z,39.00
2019-03-21T15:44:41.877Z,39.10
2019-03-21T15:47:16.254Z,39.00
2019-03-21T15:49:51.447Z,38.90
2019-03-21T15:52:25.393Z,39.10
2019-03-21T15:54:59.493Z,39.30
2019-03-21T15:57:33.299Z,39.40
2019-03-21T16:00:07.403Z,39.60
2019-03-21T16:02:41.422Z,39.30
2019-03-21T16:05:14.828Z,39.00
2019-03-21T16:07:49.952Z,39.00
2019-03-21T16:10:25.479Z,39.10
2019-03-21T16:13:00.500Z,39.10
2019-03-21T16:15:36.162Z,39.00
2019-03-21T16:18:10.899Z,39.70
2019-03-21T16:20:46.124Z,40.90
2019-03-21T16:23:20.136Z,41.50
2019-03-21T16:25:55.062Z,42.60
2019-03-21T16:28:29.984Z,42.70
2019-03-21T16:31:04.943Z,42.00
2019-03-21T16:33:39.489Z,41.70
2019-03-21T16:36:14.595Z,41.40
2019-03-21T16:38:49.739Z,41.70
2019-03-21T16:41:23.674Z,42.20
2019-03-21T16:43:56.430Z,42.60
2019-03-21T16:46:30.262Z,43.10
2019-03-21T16:49:04.229Z,43.10
2019-03-21T16:51:39.863Z,43.10
2019-03-21T16:54:20.751Z,43.00
2019-03-21T16:56:55.855Z,43.10
2019-03-21T16:59:29.154Z,42.50
2019-03-21T17:02:02.905Z,41.30
2019-03-21T17:04:36.104Z,40.40
2019-03-21T17:07:08.815Z,39.50
2019-03-21T17:09:43.234Z,39.10
2019-03-21T17:12:17.840Z,39.00
2019-03-21T17:14:52.674Z,39.00
2019-03-21T17:17:26.854Z,39.80
2019-03-21T17:20:01.496Z,40.00
2019-03-21T17:22:35.341Z,39.80
2019-03-21T17:25:09.351Z,39.50
2019-03-21T17:27:46.317Z,39.70
2019-03-21T17:30:20.940Z,39.50
2019-03-21T17:32:56.553Z,39.00
2019-03-21T17:35:29.943Z,38.90
2019-03-21T17:38:03.350Z,38.80
2019-03-21T17:40:38.158Z,38.50
2019-03-21T17:43:12.493Z,38.40
2019-03-21T17:45:45.282Z,38.50
2019-03-21T17:48:19.178Z,38.30
2019-03-21T17:50:53.210Z,38.20
2019-03-21T17:53:26.499Z,38.10
2019-03-21T17:56:01.530Z,38.40
2019-03-21T17:58:36.599Z,39.00
2019-03-21T18:01:10.738Z,40.00
2019-03-21T18:03:45.495Z,40.60
2019-03-21T18:06:19.559Z,40.60
2019-03-21T18:08:54.244Z,40.30
2019-03-21T18:11:28.649Z,40.30
2019-03-21T18:14:03.234Z,40.20
2019-03-21T18:16:38.058Z,39.70
2019-03-21T18:19:12.972Z,40.00
2019-03-21T18:21:47.450Z,40.20
2019-03-21T18:24:22.403Z,40.60
2019-03-21T18:26:56.298Z,40.80
2019-03-21T18:29:30.313Z,41.10
2019-03-21T18:32:03.112Z,40.80
2019-03-21T18:34:36.459Z,40.90
2019-03-21T18:37:10.406Z,41.20
2019-03-21T18:39:43.493Z,41.40
2019-03-21T18:42:22.026Z,41.50
2019-03-21T18:44:54.790Z,41.20
2019-03-21T18:47:29.949Z,41.10
2019-03-21T18:50:04.143Z,40.90
2019-03-21T18:52:38.099Z,41.00
2019-03-21T18:55:12.192Z,41.20
2019-03-21T18:57:45.559Z,40.90
2019-03-21T19:00:19.354Z,41.20
2019-03-21T19:02:52.234Z,41.80
2019-03-21T19:05:26.795Z,41.90
2019-03-21T19:08:00.138Z,41.50
2019-03-21T19:10:34.121Z,41.20
2019-03-21T19:13:09.175Z,40.90
2019-03-21T19:15:42.445Z,40.70
2019-03-21T19:18:16.024Z,40.60
2019-03-21T19:20:50.445Z,40.60
2019-03-21T19:23:25.074Z,40.70
2019-03-21T19:25:59.403Z,40.70
2019-03-21T19:28:33.307Z,40.40
2019-03-21T19:31:07.062Z,40.00
2019-03-21T19:33:40.539Z,40.20
2019-03-21T19:36:14.802Z,41.20
2019-03-21T19:38:49.246Z,41.70
2019-03-21T19:41:22.595Z,41.70
2019-03-21T19:43:56.267Z,41.70
2019-03-21T19:46:30.299Z,41.70
2019-03-21T19:49:06.656Z,41.50
2019-03-21T19:51:48.244Z,41.20
2019-03-21T19:54:27.819Z,41.10
2019-03-21T19:57:09.443Z,41.10
2019-03-21T19:59:43.769Z,40.90
2019-03-21T20:02:19.921Z,40.90
2019-03-21T20:04:56.029Z,40.90
2019-03-21T20:07:32.853Z,41.20
2019-03-21T20:10:07.823Z,41.70
2019-03-21T20:12:42.110Z,41.60
2019-03-21T20:15:15.973Z,42.30
2019-03-21T20:17:49.974Z,41.50
2019-03-21T20:20:26.142Z,41.20
2019-03-21T20:23:02.028Z,41.30
2019-03-21T20:25:42.687Z,41.40
2019-03-21T20:28:11.589Z,41.30
2019-03-21T20:30:44.825Z,41.60
2019-03-21T20:33:19.791Z,41.60
2019-03-21T20:35:53.134Z,41.50
2019-03-21T20:38:27.881Z,41.40
2019-03-21T20:41:03.476Z,41.10
2019-03-21T20:43:37.495Z,40.90
2019-03-21T20:46:12.367Z,40.90
2019-03-21T20:48:41.818Z,40.90
2019-03-21T20:51:15.533Z,40.90
2019-03-21T20:53:49.993Z,41.00
2019-03-21T20:56:23.379Z,41.50
2019-03-21T20:58:56.618Z,42.00
2019-03-21T21:01:30.651Z,42.30
2019-03-21T21:04:03.798Z,42.50
2019-03-21T21:06:37.120Z,43.30
2019-03-21T21:09:12.349Z,44.00
2019-03-21T21:11:47.476Z,44.10
2019-03-21T21:14:22.424Z,43.60
2019-03-21T21:16:58.084Z,43.20
2019-03-21T21:19:32.125Z,43.20
2019-03-21T21:22:07.303Z,43.00
2019-03-21T21:24:40.164Z,43.80
2019-03-21T21:27:13.542Z,44.10
2019-03-21T21:29:46.890Z,45.20
2019-03-21T21:32:22.067Z,44.50
2019-03-21T21:34:56.985Z,44.30
2019-03-21T21:37:30.806Z,44.20
2019-03-21T21:40:04.488Z,44.00
2019-03-21T21:42:38.492Z,43.80
2019-03-21T21:45:13.351Z,44.20
2019-03-21T21:48:11.984Z,44.20
2019-03-21T21:50:55.018Z,44.20
2019-03-21T21:53:29.677Z,44.40
2019-03-21T21:56:04.288Z,44.70
2019-03-21T21:58:38.877Z,45.30
2019-03-21T22:01:13.980Z,45.70
2019-03-21T22:03:49.078Z,45.80
2019-03-21T22:06:24.095Z,45.60
2019-03-21T22:08:58.831Z,45.80
2019-03-21T22:11:33.611Z,45.80
2019-03-21T22:14:09.004Z,46.10
2019-03-21T22:16:44.032Z,46.40
2019-03-21T22:19:18.518Z,46.60
2019-03-21T22:21:53.500Z,46.40
2019-03-21T22:24:28.545Z,46.40
2019-03-21T22:27:02.714Z,46.70
2019-03-21T22:29:37.308Z,47.00
2019-03-21T22:32:11.535Z,47.00
2019-03-21T22:34:46.592Z,47.00
2019-03-21T22:37:21.771Z,46.60
2019-03-21T22:39:56.904Z,46.20
2019-03-21T22:42:32.044Z,45.60
2019-03-21T22:45:07.770Z,45.20
2019-03-21T22:47:43.137Z,45.20
2019-03-21T22:50:17.560Z,45.40
2019-03-21T22:52:51.775Z,45.90
2019-03-21T22:55:27.121Z,46.10
2019-03-21T22:58:02.833Z,46.40
2019-03-21T23:00:45.257Z,46.40
2019-03-21T23:03:20.086Z,46.40
2019-03-21T23:05:55.233Z,46.90
2019-03-21T23:08:30.258Z,46.90
2019-03-21T23:11:04.992Z,47.40
2019-03-21T23:13:39.929Z,48.00
2019-03-21T23:16:14.958Z,48.40
2019-03-21T23:18:49.701Z,48.10
2019-03-21T23:21:24.728Z,47.80
2019-03-21T23:23:59.385Z,47.70
2019-03-21T23:26:34.365Z,47.30
2019-03-21T23:29:09.546Z,46.90
2019-03-21T23:31:44.551Z,47.00
2019-03-21T23:34:19.432Z,46.90
2019-03-21T23:36:54.423Z,47.00
2019-03-21T23:39:29.112Z,47.00
2019-03-21T23:42:04.110Z,46.90
2019-03-21T23:44:38.882Z,46.80
2019-03-21T23:47:13.539Z,46.90
2019-03-21T23:49:48.477Z,46.90
2019-03-21T23:52:23.711Z,47.00
2019-03-21T23:54:58.756Z,46.90
2019-03-21T23:57:34.522Z,47.00
